Time;durP1;ratioP1;P1;durP2;ratioP2;P2;SDS_P1;SDS_P2;PMS_P1;PMS_P2;Temp;Humidity;BMP_temperature;BMP_pressure;BME280_temperature;BME280_humidity;BME280_pressure;Samples;Min_cycle;Max_cycle;Signal;HPM_P1;HPM_P2
2024/04/11 00:01:44;;;;;;;5.35;1.52;;;15.30;96.70;;;;;;5348213;26;20444;-74
2024/04/11 00:04:27;;;;;;;7.32;1.55;;;15.30;96.70;;;;;;5372714;26;20012;-74
2024/04/11 00:06:56;;;;;;;4.30;1.40;;;15.30;96.70;;;;;;5372489;26;20126;-74
2024/04/11 00:09:27;;;;;;;5.22;1.13;;;15.30;96.70;;;;;;5372885;26;20004;-74
2024/04/11 00:11:56;;;;;;;9.25;2.10;;;15.40;96.70;;;;;;5349587;26;20004;-74
2024/04/11 00:14:24;;;;;;;6.22;1.60;;;15.30;96.70;;;;;;5402256;26;20805;-74
2024/04/11 00:16:53;;;;;;;8.18;1.83;;;15.40;96.70;;;;;;5374662;26;20023;-74
2024/04/11 00:19:22;;;;;;;6.22;1.50;;;15.30;96.70;;;;;;5372249;26;20018;-73
2024/04/11 00:21:55;;;;;;;6.30;1.77;;;15.30;96.70;;;;;;5349019;26;20058;-73
2024/04/11 00:24:24;;;;;;;6.72;1.95;;;15.20;96.70;;;;;;5407951;26;20469;-74
2024/04/11 00:26:53;;;;;;;8.88;2.10;;;15.00;96.70;;;;;;5404201;26;20023;-73
2024/04/11 00:29:22;;;;;;;6.97;2.15;;;14.90;96.70;;;;;;5405322;26;20324;-74
2024/04/11 00:31:56;;;;;;;7.57;1.70;;;15.10;96.70;;;;;;5407745;26;20109;-74
2024/04/11 00:34:31;;;;;;;10.02;1.75;;;15.10;96.70;;;;;;5415618;26;20012;-75
2024/04/11 00:37:05;;;;;;;5.65;1.33;;;15.10;96.70;;;;;;5372438;26;20004;-75
2024/04/11 00:39:33;;;;;;;5.20;1.35;;;14.90;96.70;;;;;;5371726;26;20012;-74
2024/04/11 00:42:01;;;;;;;3.97;1.40;;;14.80;96.70;;;;;;5374118;26;20015;-74
2024/04/11 00:44:32;;;;;;;7.50;1.58;;;14.70;96.70;;;;;;5397332;26;20008;-73
2024/04/11 00:47:02;;;;;;;8.88;1.88;;;14.70;96.70;;;;;;5404255;26;20005;-74
2024/04/11 00:49:34;;;;;;;6.40;1.85;;;14.70;96.70;;;;;;5377863;26;20023;-74
2024/04/11 00:52:07;;;;;;;6.20;1.50;;;14.80;96.70;;;;;;5407942;26;20069;-73
2024/04/11 00:54:38;;;;;;;5.80;1.77;;;14.70;96.70;;;;;;5358860;26;20000;-74
2024/04/11 00:57:08;;;;;;;5.53;1.45;;;14.70;96.70;;;;;;5400902;26;20472;-74
2024/04/11 00:59:39;;;;;;;9.10;2.05;;;14.60;96.70;;;;;;5372587;26;20004;-73
2024/04/11 01:02:09;;;;;;;5.75;1.92;;;14.60;96.70;;;;;;5371795;26;20078;-73
2024/04/11 01:04:38;;;;;;;3.35;1.63;;;14.60;96.70;;;;;;5381995;26;20000;-73
2024/04/11 01:07:12;;;;;;;7.90;2.40;;;14.60;96.70;;;;;;5425690;26;20085;-74
2024/04/11 01:09:43;;;;;;;4.35;1.58;;;14.80;96.70;;;;;;5372481;26;20015;-74
2024/04/11 01:12:14;;;;;;;5.60;1.75;;;14.90;96.70;;;;;;5387469;26;20020;-74
2024/04/11 01:14:44;;;;;;;6.63;1.83;;;15.00;96.70;;;;;;5397695;26;20018;-74
2024/04/11 01:17:17;;;;;;;6.20;1.40;;;15.00;96.70;;;;;;5388149;26;20714;-73
2024/04/11 01:19:47;;;;;;;6.10;1.77;;;15.00;96.70;;;;;;5378407;26;20000;-74
2024/04/11 01:22:19;;;;;;;8.15;1.95;;;15.10;96.70;;;;;;5376029;26;20063;-74
2024/04/11 01:24:52;;;;;;;7.10;2.20;;;15.10;96.70;;;;;;5407278;26;19995;-73
2024/04/11 01:27:21;;;;;;;5.13;1.27;;;15.00;96.70;;;;;;5402719;26;20080;-74
2024/04/11 01:29:51;;;;;;;7.80;2.00;;;15.00;96.70;;;;;;5389495;26;20041;-73
2024/04/11 01:32:21;;;;;;;8.30;2.13;;;14.90;96.70;;;;;;5371694;26;19996;-74
2024/04/11 01:34:56;;;;;;;5.03;1.55;;;14.80;96.70;;;;;;5371801;26;20018;-74
2024/04/11 01:37:25;;;;;;;8.30;2.05;;;14.90;96.70;;;;;;5380907;26;20007;-73
2024/04/11 01:39:57;;;;;;;6.30;1.90;;;15.10;96.70;;;;;;5377605;26;20003;-74
2024/04/11 01:42:25;;;;;;;5.35;1.75;;;15.20;96.70;;;;;;5376362;26;20050;-73
2024/04/11 01:44:55;;;;;;;7.93;2.08;;;15.20;96.70;;;;;;5397632;26;20019;-74
2024/04/11 01:47:23;;;;;;;4.70;1.83;;;15.20;96.70;;;;;;5403966;26;20031;-73
2024/04/11 01:49:52;;;;;;;4.70;1.63;;;15.10;96.70;;;;;;5406647;26;19999;-74
2024/04/11 01:52:20;;;;;;;7.57;2.33;;;15.00;96.70;;;;;;5395241;26;20022;-74
2024/04/11 01:54:49;;;;;;;5.32;1.80;;;15.10;96.70;;;;;;5377733;26;20026;-74
2024/04/11 01:57:21;;;;;;;7.97;2.38;;;15.20;96.70;;;;;;5379509;26;19999;-73
2024/04/11 01:59:53;;;;;;;7.75;1.90;;;15.10;96.70;;;;;;5399828;26;20004;-73
2024/04/11 02:02:22;;;;;;;5.78;2.00;;;15.20;96.70;;;;;;5377310;26;19996;-74
2024/04/11 02:04:51;;;;;;;6.72;1.60;;;15.20;96.70;;;;;;5410615;26;19999;-74
2024/04/11 02:07:22;;;;;;;6.28;1.92;;;15.20;96.70;;;;;;5373513;26;20015;-74
2024/04/11 02:09:51;;;;;;;6.28;1.63;;;15.30;96.70;;;;;;5374701;26;20447;-74
2024/04/11 02:12:26;;;;;;;4.78;1.60;;;15.30;96.70;;;;;;5374124;26;20455;-74
2024/04/11 02:14:56;;;;;;;5.43;1.98;;;15.10;96.70;;;;;;5372405;26;20023;-73
2024/04/11 02:17:24;;;;;;;7.22;2.00;;;14.90;96.70;;;;;;5360202;26;20127;-73
2024/04/11 02:19:54;;;;;;;6.30;1.67;;;14.90;96.70;;;;;;5379976;26;20000;-73
2024/04/11 02:22:22;;;;;;;6.25;1.50;;;14.90;96.70;;;;;;5361904;26;20081;-72
2024/04/11 02:24:53;;;;;;;3.65;1.20;;;15.00;96.70;;;;;;5378854;26;20472;-73
2024/04/11 02:27:38;;;;;;;5.88;2.10;;;15.10;96.70;;;;;;5388402;26;20080;-73
2024/04/11 02:30:09;;;;;;;7.97;1.70;;;15.20;96.70;;;;;;5405305;26;20334;-73
2024/04/11 02:32:41;;;;;;;8.95;1.67;;;15.10;96.70;;;;;;5379827;26;19999;-74
2024/04/11 02:35:11;;;;;;;6.10;1.60;;;15.00;96.70;;;;;;5409865;26;20028;-73
2024/04/11 02:37:43;;;;;;;7.78;1.80;;;14.90;96.70;;;;;;5378544;26;20028;-73
2024/04/11 02:40:11;;;;;;;8.55;2.40;;;14.90;96.70;;;;;;5374278;26;20086;-74
2024/04/11 02:42:47;;;;;;;7.40;2.05;;;14.90;96.70;;;;;;5373748;26;20004;-73
2024/04/11 02:45:18;;;;;;;6.32;1.73;;;15.00;96.70;;;;;;5372183;26;20009;-73
2024/04/11 02:47:46;;;;;;;5.25;1.80;;;15.00;96.70;;;;;;5373449;26;20034;-73
2024/04/11 02:50:16;;;;;;;6.78;2.33;;;15.00;96.70;;;;;;5408966;26;20010;-74
2024/04/11 02:52:44;;;;;;;5.10;1.30;;;15.10;96.70;;;;;;5408591;26;20014;-73
2024/04/11 02:55:14;;;;;;;5.13;1.73;;;15.10;96.70;;;;;;5390332;26;20004;-72
2024/04/11 02:57:47;;;;;;;4.22;1.40;;;15.10;96.70;;;;;;5344259;26;20391;-73
2024/04/11 03:00:19;;;;;;;7.00;1.50;;;15.00;96.70;;;;;;5397470;26;20004;-73
2024/04/11 03:02:47;;;;;;;5.60;1.30;;;15.00;96.70;;;;;;5395829;26;19996;-73
2024/04/11 03:05:18;;;;;;;7.82;1.45;;;15.00;96.70;;;;;;5373597;26;20021;-73
2024/04/11 03:07:49;;;;;;;5.53;1.48;;;15.00;96.70;;;;;;5372232;26;20001;-73
2024/04/11 03:10:17;;;;;;;5.90;1.60;;;14.90;96.70;;;;;;5391140;26;20007;-72
2024/04/11 03:12:51;;;;;;;7.30;1.67;;;14.90;96.70;;;;;;5409299;26;20831;-74
2024/04/11 03:15:20;;;;;;;11.15;1.80;;;14.80;96.70;;;;;;5403346;26;20648;-73
2024/04/11 03:17:49;;;;;;;6.50;1.00;;;14.70;96.70;;;;;;5408573;26;20000;-73
2024/04/11 03:20:18;;;;;;;4.95;1.50;;;14.70;96.70;;;;;;5379329;26;20023;-73
2024/04/11 03:22:47;;;;;;;8.25;1.80;;;14.70;96.70;;;;;;5408316;26;20003;-73
2024/04/11 03:25:18;;;;;;;7.63;1.27;;;14.60;96.70;;;;;;5379911;26;19999;-73
2024/04/11 03:27:50;;;;;;;5.63;1.75;;;14.60;96.70;;;;;;5367269;26;20100;-74
2024/04/11 03:30:19;;;;;;;3.45;1.17;;;14.60;96.70;;;;;;5376734;26;20055;-73
2024/04/11 03:32:50;;;;;;;5.57;1.38;;;14.60;96.70;;;;;;5373052;26;20004;-73
2024/04/11 03:35:18;;;;;;;7.25;1.30;;;14.50;96.70;;;;;;5373359;26;20474;-73
2024/04/11 03:37:49;;;;;;;5.45;1.23;;;14.50;96.70;;;;;;5378351;26;20011;-73
2024/04/11 03:40:17;;;;;;;7.25;1.60;;;14.40;96.70;;;;;;5373821;26;20078;-73
2024/04/11 03:42:46;;;;;;;2.53;1.50;;;14.40;96.70;;;;;;5380399;26;20000;-73
2024/04/11 03:45:26;;;;;;;5.00;1.00;;;14.40;96.70;;;;;;5382007;26;20036;-73
2024/04/11 03:47:55;;;;;;;4.40;1.25;;;14.40;96.70;;;;;;5373295;26;20000;-73
2024/04/11 03:50:29;;;;;;;3.22;1.15;;;14.30;96.70;;;;;;5346359;26;19996;-74
2024/04/11 03:53:01;;;;;;;4.40;1.33;;;14.40;96.70;;;;;;5379231;26;20003;-73
2024/04/11 03:55:32;;;;;;;7.93;1.25;;;14.40;96.70;;;;;;5369798;26;20008;-73
2024/04/11 03:58:00;;;;;;;5.20;1.67;;;14.40;96.70;;;;;;5403414;26;20006;-74
2024/04/11 04:00:32;;;;;;;5.57;1.83;;;14.40;96.70;;;;;;5379218;26;20001;-73
2024/04/11 04:03:01;;;;;;;4.28;1.20;;;14.40;96.70;;;;;;5402355;26;20028;-73
2024/04/11 04:05:33;;;;;;;6.13;1.73;;;14.40;96.70;;;;;;5378970;26;20579;-73
2024/04/11 04:11:36;;;;;;;5.43;1.10;;;14.30;96.70;;;;;;5407628;26;20126;-73
2024/04/11 04:14:11;;;;;;;5.07;1.67;;;14.20;96.70;;;;;;5375850;26;20326;-73
2024/04/11 04:16:44;;;;;;;7.38;1.63;;;14.20;96.70;;;;;;5390548;26;20465;-73
2024/04/11 04:19:12;;;;;;;5.30;1.83;;;14.00;96.70;;;;;;5368924;26;20040;-73
2024/04/11 04:21:41;;;;;;;4.70;1.42;;;14.10;96.70;;;;;;5404717;26;20007;-73
2024/04/11 04:24:09;;;;;;;5.25;1.48;;;14.10;96.70;;;;;;5374864;26;20000;-74
2024/04/11 04:26:47;;;;;;;5.47;1.33;;;14.10;96.70;;;;;;5376688;26;20004;-73
2024/04/11 04:29:21;;;;;;;4.60;1.60;;;14.20;96.70;;;;;;5406583;26;20008;-73
2024/04/11 04:31:52;;;;;;;3.95;1.17;;;14.20;96.70;;;;;;5407014;26;20004;-76
2024/04/11 04:34:22;;;;;;;7.20;1.40;;;14.10;96.70;;;;;;5407166;26;20003;-76
2024/04/11 04:36:51;;;;;;;5.05;1.20;;;14.10;96.70;;;;;;5404505;26;20004;-75
2024/04/11 04:39:30;;;;;;;4.85;1.30;;;14.10;96.70;;;;;;5377028;26;20353;-76
2024/04/11 04:42:01;;;;;;;3.60;1.30;;;14.10;96.70;;;;;;5370834;26;19997;-75
2024/04/11 04:44:32;;;;;;;4.38;1.58;;;14.10;96.70;;;;;;5378094;26;20189;-76
2024/04/11 04:47:15;;;;;;;5.30;1.08;;;14.10;96.70;;;;;;5377885;26;20004;-76
2024/04/11 04:49:45;;;;;;;5.80;1.33;;;14.10;96.70;;;;;;5425430;26;20000;-76
2024/04/11 04:52:14;;;;;;;5.57;1.63;;;14.10;96.70;;;;;;5365132;26;20027;-76
2024/04/11 04:54:44;;;;;;;5.55;1.20;;;14.10;96.70;;;;;;5403454;26;20014;-73
2024/04/11 04:57:13;;;;;;;5.57;1.23;;;14.10;96.70;;;;;;5405780;26;20023;-73
2024/04/11 04:59:42;;;;;;;4.15;1.30;;;14.00;96.70;;;;;;5406416;26;20000;-73
2024/04/11 05:02:14;;;;;;;3.60;1.27;;;14.10;96.70;;;;;;5406825;26;20003;-73
2024/04/11 05:04:45;;;;;;;3.80;1.40;;;14.00;96.70;;;;;;5377541;26;20080;-73
2024/04/11 05:07:14;;;;;;;5.07;1.35;;;14.10;96.70;;;;;;5377022;26;20013;-73
2024/04/11 05:09:46;;;;;;;7.93;1.27;;;14.10;96.70;;;;;;5375988;26;20003;-72
2024/04/11 05:12:14;;;;;;;4.97;1.55;;;14.10;96.70;;;;;;5377164;26;20024;-73
2024/04/11 05:14:45;;;;;;;6.00;2.03;;;14.10;96.70;;;;;;5377767;26;20511;-73
2024/04/11 05:17:21;;;;;;;5.18;1.65;;;14.00;96.70;;;;;;5406694;26;20007;-73
2024/04/11 05:19:51;;;;;;;6.40;1.58;;;14.10;96.70;;;;;;5406602;26;20486;-74
2024/04/11 05:22:22;;;;;;;7.47;1.85;;;14.10;96.70;;;;;;5407040;26;20011;-74
2024/04/11 05:25:05;;;;;;;4.57;1.25;;;14.10;96.70;;;;;;5406840;26;19999;-73
2024/04/11 05:27:37;;;;;;;4.22;1.20;;;14.10;96.70;;;;;;5362891;26;20363;-71
2024/04/11 05:30:10;;;;;;;4.25;1.40;;;14.20;96.70;;;;;;5392243;26;20049;-74
2024/04/11 05:32:46;;;;;;;3.92;1.50;;;14.30;96.70;;;;;;5363461;26;20007;-73
2024/04/11 05:35:15;;;;;;;4.97;1.30;;;14.30;96.70;;;;;;5376220;26;20452;-73
2024/04/11 05:37:47;;;;;;;6.15;1.60;;;14.40;96.70;;;;;;5365830;26;20003;-73
2024/04/11 05:40:16;;;;;;;4.32;1.55;;;14.40;96.70;;;;;;5392728;26;20004;-74
2024/04/11 05:42:45;;;;;;;4.07;1.58;;;14.40;96.70;;;;;;5402068;26;20326;-73
2024/04/11 05:45:18;;;;;;;3.38;1.35;;;14.50;96.70;;;;;;5400040;26;20554;-73
2024/04/11 05:47:51;;;;;;;4.70;1.48;;;14.60;96.70;;;;;;5386348;26;20208;-73
2024/04/11 05:50:20;;;;;;;8.77;1.80;;;14.60;96.70;;;;;;5388231;26;20000;-72
2024/04/11 05:52:48;;;;;;;5.22;1.90;;;14.60;96.70;;;;;;5404031;26;19999;-73
2024/04/11 05:55:16;;;;;;;5.60;1.80;;;14.60;96.70;;;;;;5361971;26;20045;-73
2024/04/11 05:57:45;;;;;;;6.03;1.70;;;14.60;96.70;;;;;;5375845;26;20797;-73
2024/04/11 06:00:15;;;;;;;6.13;1.65;;;14.60;96.70;;;;;;5404821;26;20111;-72
2024/04/11 06:02:45;;;;;;;7.32;1.60;;;14.70;96.70;;;;;;5376677;26;19999;-73
2024/04/11 06:05:16;;;;;;;6.40;1.73;;;14.70;96.70;;;;;;5376243;26;20043;-74
2024/04/11 06:07:44;;;;;;;5.70;1.55;;;14.70;96.70;;;;;;5382321;26;19996;-72
2024/04/11 06:10:12;;;;;;;6.03;1.60;;;14.70;96.70;;;;;;5376083;26;20011;-72
2024/04/11 06:12:40;;;;;;;3.80;1.92;;;14.80;96.70;;;;;;5375831;26;20016;-72
2024/04/11 06:15:11;;;;;;;5.03;1.80;;;14.80;96.70;;;;;;5376182;26;19999;-72
2024/04/11 06:17:41;;;;;;;7.53;2.17;;;14.80;96.70;;;;;;5404266;26;20074;-73
2024/04/11 06:20:15;;;;;;;6.57;2.13;;;14.80;96.70;;;;;;5404234;26;20086;-73
2024/04/11 06:22:51;;;;;;;7.85;2.85;;;14.80;96.70;;;;;;5381822;26;20555;-72
2024/04/11 06:25:20;;;;;;;;;;;14.90;96.70;;;;;;5370226;26;20012;-73
2024/04/11 06:27:50;;;;;;;8.80;2.35;;;14.90;96.70;;;;;;5402521;26;19940;-73
2024/04/11 06:30:19;;;;;;;8.95;1.98;;;14.90;96.70;;;;;;5373693;26;20348;-73
2024/04/11 06:32:51;;;;;;;6.72;2.28;;;14.80;96.70;;;;;;5375758;26;19996;-73
2024/04/11 06:35:21;;;;;;;8.90;2.50;;;14.90;96.70;;;;;;5404123;26;21091;-73
2024/04/11 06:37:52;;;;;;;8.27;2.38;;;15.00;96.70;;;;;;5375872;26;20821;-73
2024/04/11 06:40:22;;;;;;;7.40;2.63;;;15.00;96.70;;;;;;5391254;26;20550;-73
2024/04/11 06:42:51;;;;;;;6.53;2.20;;;15.00;96.70;;;;;;5375414;26;20460;-73
2024/04/11 06:45:23;;;;;;;6.38;2.17;;;15.10;96.70;;;;;;5361116;26;20018;-73
2024/04/11 06:47:53;;;;;;;6.05;2.15;;;15.10;96.70;;;;;;5408529;26;20816;-73
2024/04/11 06:50:23;;;;;;;9.23;2.55;;;15.20;96.70;;;;;;5391911;26;20003;-73
2024/04/11 06:52:59;;;;;;;6.80;2.85;;;15.30;96.70;;;;;;5373076;26;20011;-72
2024/04/11 06:55:30;;;;;;;6.38;2.30;;;15.30;96.70;;;;;;5378761;26;20007;-73
2024/04/11 06:57:59;;;;;;;7.47;2.67;;;15.40;96.70;;;;;;5373167;26;20461;-73
2024/04/11 07:00:37;;;;;;;8.23;2.65;;;15.50;96.70;;;;;;5373420;26;20014;-73
2024/04/11 07:03:25;;;;;;;7.43;2.78;;;15.50;96.70;;;;;;5368252;26;19996;-73
2024/04/11 07:05:55;;;;;;;10.98;3.20;;;15.60;96.70;;;;;;5379569;26;19999;-73
2024/04/11 07:08:31;;;;;;;6.93;2.83;;;15.70;96.70;;;;;;5407814;26;20076;-73
2024/04/11 07:11:19;;;;;;;7.90;2.30;;;15.70;96.70;;;;;;5406280;26;20023;-74
2024/04/11 07:13:54;;;;;;;6.85;2.83;;;15.90;96.70;;;;;;5379810;26;20484;-73
2024/04/11 07:16:29;;;;;;;6.90;2.08;;;16.00;96.70;;;;;;5407982;26;20502;-74
2024/04/11 07:18:58;;;;;;;7.43;2.83;;;16.00;96.70;;;;;;5407677;26;20558;-73
2024/04/11 07:21:30;;;;;;;6.53;2.50;;;16.10;96.70;;;;;;5393504;26;20801;-73
2024/04/11 07:24:06;;;;;;;6.03;2.28;;;16.20;96.70;;;;;;5379090;26;20000;-73
2024/04/11 07:26:38;;;;;;;5.07;2.85;;;16.20;96.70;;;;;;5400036;26;20007;-73
2024/04/11 07:29:08;;;;;;;6.07;3.00;;;16.30;96.70;;;;;;5377886;26;19999;-74
2024/04/11 07:31:39;;;;;;;4.82;2.45;;;16.40;96.70;;;;;;5396356;26;20008;-73
2024/04/11 07:34:09;;;;;;;5.32;2.25;;;16.50;96.70;;;;;;5379502;26;20010;-73
2024/04/11 07:36:41;;;;;;;6.57;2.72;;;16.60;96.70;;;;;;5378530;26;20008;-73
2024/04/11 07:39:15;;;;;;;8.40;3.28;;;16.60;96.70;;;;;;5408145;26;20014;-74
2024/04/11 07:41:46;;;;;;;5.95;2.70;;;16.70;96.70;;;;;;5377300;26;20055;-73
2024/04/11 07:44:17;;;;;;;8.10;3.30;;;16.80;96.70;;;;;;5371637;26;20015;-73
2024/04/11 07:46:47;;;;;;;6.82;2.38;;;16.90;96.70;;;;;;5378838;26;20000;-74
2024/04/11 07:49:35;;;;;;;7.20;2.45;;;17.00;96.70;;;;;;5382097;26;20397;-73
2024/04/11 07:52:05;;;;;;;5.57;2.03;;;17.10;96.70;;;;;;5364657;26;20825;-73
2024/04/11 07:54:42;;;;;;;5.70;2.28;;;17.20;96.70;;;;;;5378110;26;20012;-72
2024/04/11 07:57:16;;;;;;;6.63;1.77;;;17.30;96.70;;;;;;5379188;26;20015;-73
2024/04/11 07:59:46;;;;;;;4.55;2.00;;;17.40;96.70;;;;;;5405076;26;20014;-73
2024/04/11 08:02:18;;;;;;;8.10;2.03;;;17.40;96.70;;;;;;5365042;26;20479;-73
2024/04/11 08:04:55;;;;;;;4.50;2.20;;;17.50;96.70;;;;;;5378277;26;19996;-73
2024/04/11 08:07:23;;;;;;;4.68;2.30;;;17.60;96.70;;;;;;5371987;26;20016;-73
2024/04/11 08:09:58;;;;;;;7.28;2.50;;;17.70;96.70;;;;;;5377762;26;19999;-73
2024/04/11 08:12:27;;;;;;;4.95;2.30;;;17.80;96.70;;;;;;5406577;26;20003;-74
2024/04/11 08:14:58;;;;;;;5.20;1.92;;;17.90;96.70;;;;;;5407326;26;20542;-73
2024/04/11 08:17:28;;;;;;;4.40;1.73;;;18.00;96.70;;;;;;5376823;26;19995;-73
2024/04/11 08:19:58;;;;;;;4.22;1.33;;;18.10;96.70;;;;;;5407140;26;20450;-73
2024/04/11 08:22:28;;;;;;;5.95;1.45;;;18.30;96.70;;;;;;5377167;26;20093;-73
2024/04/11 08:25:03;;;;;;;2.30;1.08;;;18.40;96.70;;;;;;5407090;26;20026;-73
2024/04/11 08:27:37;;;;;;;5.63;2.25;;;18.50;96.70;;;;;;5407231;26;20080;-73
2024/04/11 08:30:07;;;;;;;3.95;1.60;;;18.70;96.70;;;;;;5407330;26;20000;-74
2024/04/11 08:32:37;;;;;;;4.97;2.00;;;18.80;96.70;;;;;;5406470;26;20003;-73
2024/04/11 08:35:08;;;;;;;4.40;1.70;;;18.90;96.70;;;;;;5392374;26;20007;-74
2024/04/11 08:37:37;;;;;;;3.10;1.27;;;19.20;96.70;;;;;;5373045;26;20016;-74
2024/04/11 08:40:10;;;;;;;2.50;1.02;;;19.20;96.70;;;;;;5406713;26;20089;-73
2024/04/11 08:42:42;;;;;;;4.15;1.30;;;19.10;96.70;;;;;;5406165;26;20403;-73
2024/04/11 08:45:13;;;;;;;3.08;1.17;;;19.10;96.70;;;;;;5377484;26;20008;-73
2024/04/11 08:47:42;;;;;;;4.57;1.10;;;19.20;96.70;;;;;;5407503;26;19999;-72
2024/04/11 08:50:13;;;;;;;2.85;0.90;;;19.30;96.70;;;;;;5376710;26;20011;-74
2024/04/11 08:52:45;;;;;;;1.33;1.02;;;19.30;96.70;;;;;;5400950;26;20000;-73
2024/04/11 08:55:22;;;;;;;5.47;1.30;;;19.50;96.70;;;;;;5390369;26;20018;-71
2024/04/11 08:57:52;;;;;;;3.88;1.27;;;19.40;96.70;;;;;;5405948;26;20392;-74
2024/04/11 09:00:22;;;;;;;5.28;1.30;;;19.40;96.70;;;;;;5406650;26;20076;-73
2024/04/11 09:02:52;;;;;;;3.22;1.20;;;19.50;96.70;;;;;;5377094;26;19995;-72
2024/04/11 09:05:22;;;;;;;3.17;1.15;;;19.60;96.70;;;;;;5406086;26;20072;-72
2024/04/11 09:07:53;;;;;;;1.48;1.02;;;19.70;96.70;;;;;;5398839;26;20000;-71
2024/04/11 09:10:25;;;;;;;4.78;1.23;;;19.90;96.70;;;;;;5376843;26;20007;-72
2024/04/11 09:12:59;;;;;;;3.78;1.27;;;19.90;96.70;;;;;;5404459;26;20008;-71
2024/04/11 09:15:28;;;;;;;2.55;0.73;;;20.00;96.70;;;;;;5407326;26;20007;-70
2024/04/11 09:17:59;;;;;;;4.00;1.17;;;20.10;96.70;;;;;;5405806;26;20057;-72
2024/04/11 09:20:32;;;;;;;2.78;0.88;;;20.10;96.70;;;;;;5392135;26;19999;-72
2024/04/11 09:23:04;;;;;;;4.05;1.60;;;20.10;96.70;;;;;;5377076;26;20076;-76
2024/04/11 09:25:37;;;;;;;5.35;1.80;;;20.30;96.70;;;;;;5372757;26;20000;-74
2024/04/11 09:28:11;;;;;;;3.38;0.95;;;20.50;96.70;;;;;;5376459;26;20081;-74
2024/04/11 09:30:40;;;;;;;7.28;1.20;;;20.70;96.70;;;;;;5377029;26;19996;-71
2024/04/11 09:33:16;;;;;;;2.90;1.10;;;20.80;96.70;;;;;;5365809;26;20011;-75
2024/04/11 09:35:47;;;;;;;1.25;0.90;;;20.90;96.70;;;;;;5406388;26;20000;-72
2024/04/11 09:38:22;;;;;;;3.47;1.15;;;20.90;96.70;;;;;;5406241;26;20069;-73
2024/04/11 09:40:56;;;;;;;4.15;1.00;;;20.90;96.70;;;;;;5376179;26;20431;-72
2024/04/11 09:43:28;;;;;;;7.35;1.17;;;20.80;96.70;;;;;;5368423;26;20844;-72
2024/04/11 09:46:06;;;;;;;2.58;1.00;;;20.70;96.70;;;;;;5371393;26;20004;-73
2024/04/11 09:48:41;;;;;;;3.80;1.20;;;20.80;96.70;;;;;;5403971;26;20000;-72
2024/04/11 09:51:13;;;;;;;1.63;0.85;;;21.10;96.70;;;;;;5394633;26;20488;-73
2024/04/11 09:53:42;;;;;;;3.28;1.10;;;21.30;96.70;;;;;;5399357;26;20449;-72
2024/04/11 09:56:17;;;;;;;3.55;1.20;;;21.40;96.70;;;;;;5371168;26;20004;-72
2024/04/11 09:58:48;;;;;;;5.07;1.40;;;21.50;96.70;;;;;;5367464;26;20000;-72
2024/04/11 10:01:31;;;;;;;3.67;1.17;;;21.60;96.70;;;;;;5362634;26;20004;-71
2024/04/11 10:04:03;;;;;;;3.72;0.80;;;21.60;96.70;;;;;;5376941;26;20006;-72
2024/04/11 10:06:41;;;;;;;3.15;1.30;;;21.60;96.70;;;;;;5403785;26;20003;-72
2024/04/11 10:09:17;;;;;;;2.53;0.93;;;21.70;96.70;;;;;;5391717;26;20599;-72
2024/04/11 10:11:54;;;;;;;3.55;1.38;;;21.90;96.70;;;;;;5377042;26;20004;-72
2024/04/11 10:14:28;;;;;;;3.47;1.10;;;22.00;96.70;;;;;;5392858;26;20014;-72
2024/04/11 10:17:07;;;;;;;2.47;1.17;;;22.00;96.70;;;;;;5374969;26;20000;-71
2024/04/11 10:19:38;;;;;;;2.97;1.15;;;22.10;96.70;;;;;;5379574;26;20000;-72
2024/04/11 10:22:15;;;;;;;3.88;0.82;;;22.10;96.70;;;;;;5379700;26;20028;-72
2024/04/11 10:24:49;;;;;;;4.35;1.00;;;22.20;96.70;;;;;;5408652;26;20010;-72
2024/04/11 10:27:29;;;;;;;6.13;1.02;;;22.10;96.70;;;;;;5379369;26;20051;-72
2024/04/11 10:30:05;;;;;;;2.60;0.95;;;22.20;96.70;;;;;;5379594;26;20049;-72
2024/04/11 10:32:46;;;;;;;2.55;1.10;;;22.10;96.70;;;;;;5373315;26;20000;-72
2024/04/11 10:35:19;;;;;;;3.10;1.00;;;22.30;96.70;;;;;;5394683;26;19999;-72
2024/04/11 10:37:50;;;;;;;1.48;0.90;;;22.40;96.70;;;;;;5379695;26;20017;-72
2024/04/11 10:40:24;;;;;;;3.30;1.08;;;22.50;96.70;;;;;;5372728;26;20015;-73
2024/04/11 10:43:14;;;;;;;3.55;1.15;;;22.60;96.70;;;;;;5372941;26;20004;-72
2024/04/11 10:45:45;;;;;;;5.65;1.08;;;22.70;96.70;;;;;;5397503;26;19999;-71
2024/04/11 10:48:17;;;;;;;2.28;1.08;;;22.90;96.70;;;;;;5373413;26;20004;-72
2024/04/11 10:50:47;;;;;;;2.08;1.20;;;23.10;96.70;;;;;;5398206;26;19999;-71
2024/04/11 10:53:20;;;;;;;2.17;1.00;;;23.30;96.70;;;;;;5406958;26;20007;-72
2024/04/11 10:55:55;;;;;;;1.20;0.82;;;23.30;96.70;;;;;;5407759;26;20010;-71
2024/04/11 10:58:31;;;;;;;5.32;1.10;;;23.50;96.70;;;;;;5408088;26;20533;-71
2024/04/11 11:06:14;;;;;;;2.72;1.05;;;23.60;96.70;;;;;;5407206;26;20000;-72
2024/04/11 11:08:43;;;;;;;3.58;1.20;;;23.70;96.70;;;;;;5437779;26;20003;-71
2024/04/11 11:11:21;;;;;;;3.30;1.30;;;23.60;96.70;;;;;;5378655;26;20080;-72
2024/04/11 11:14:00;;;;;;;3.70;1.30;;;23.50;96.70;;;;;;5407482;26;20043;-72
2024/04/11 11:16:31;;;;;;;2.45;1.10;;;23.50;96.70;;;;;;5379045;26;20003;-71
2024/04/11 11:19:00;;;;;;;2.60;0.98;;;23.60;96.70;;;;;;5407559;26;20046;-72
2024/04/11 11:21:32;;;;;;;3.70;1.10;;;23.70;96.70;;;;;;5371827;26;20004;-71
2024/04/11 11:24:06;;;;;;;1.50;1.10;;;23.80;96.70;;;;;;5390410;26;20418;-72
2024/04/11 11:26:36;;;;;;;3.78;1.27;;;23.90;96.70;;;;;;5379109;26;20517;-72
2024/04/11 11:29:10;;;;;;;5.38;1.20;;;24.00;96.70;;;;;;5403089;26;20322;-72
2024/04/11 11:31:43;;;;;;;2.03;0.93;;;24.20;96.70;;;;;;5408233;26;20073;-71
2024/04/11 11:34:12;;;;;;;2.35;1.23;;;24.30;96.70;;;;;;5378307;26;20346;-71
2024/04/11 11:36:47;;;;;;;3.17;1.15;;;24.20;96.70;;;;;;5378516;26;20014;-71
2024/04/11 11:39:18;;;;;;;8.13;1.58;;;24.30;96.70;;;;;;5378610;26;20023;-72
2024/04/11 11:41:49;;;;;;;2.85;1.20;;;24.40;96.70;;;;;;5371350;26;20008;-72
2024/04/11 11:44:28;;;;;;;3.72;1.23;;;24.60;96.70;;;;;;5378858;26;20004;-71
2024/04/11 11:47:06;;;;;;;4.28;1.30;;;24.80;96.70;;;;;;5378886;26;20012;-72
2024/04/11 11:49:41;;;;;;;2.15;1.00;;;24.40;96.70;;;;;;5377856;26;20011;-72
2024/04/11 11:52:14;;;;;;;1.90;1.10;;;24.30;96.70;;;;;;5393080;26;19999;-72
2024/04/11 11:54:43;;;;;;;2.65;1.10;;;24.40;96.70;;;;;;5371323;26;20018;-71
2024/04/11 11:57:22;;;;;;;1.90;0.90;;;24.40;96.70;;;;;;5376307;26;20356;-72
2024/04/11 11:59:53;;;;;;;5.72;1.52;;;24.30;96.70;;;;;;5404427;26;20000;-73
2024/04/11 12:02:23;;;;;;;1.85;1.20;;;24.40;96.70;;;;;;5361816;26;20012;-72
2024/04/11 12:04:52;;;;;;;5.80;1.70;;;24.50;96.70;;;;;;5377947;26;20000;-73
2024/04/11 12:07:24;;;;;;;2.33;0.98;;;24.50;96.70;;;;;;5376130;26;20014;-73
2024/04/11 12:10:12;;;;;;;2.72;1.20;;;24.70;96.70;;;;;;5376768;26;20076;-71
2024/04/11 12:12:43;;;;;;;2.83;1.20;;;24.60;96.70;;;;;;5365685;26;19996;-72
2024/04/11 12:15:24;;;;;;;4.40;1.10;;;24.50;96.70;;;;;;5371036;26;20008;-72
2024/04/11 12:17:53;;;;;;;1.90;0.90;;;24.60;96.70;;;;;;5376014;26;20107;-72
2024/04/11 12:20:27;;;;;;;3.42;1.13;;;24.50;96.70;;;;;;5376573;26;20011;-73
2024/04/11 12:23:06;;;;;;;4.57;1.23;;;24.50;96.70;;;;;;5377283;26;20362;-73
2024/04/11 12:25:36;;;;;;;4.43;1.40;;;24.50;96.70;;;;;;5377716;26;20022;-73
2024/04/11 12:28:05;;;;;;;2.92;0.90;;;24.50;96.70;;;;;;5407145;26;20326;-73
2024/04/11 12:30:40;;;;;;;2.55;1.08;;;24.80;96.70;;;;;;5403624;26;20411;-72
2024/04/11 12:33:11;;;;;;;3.33;0.95;;;25.00;96.70;;;;;;5400227;26;20047;-72
2024/04/11 12:35:54;;;;;;;3.00;1.00;;;24.90;96.70;;;;;;5402640;26;20449;-71
2024/04/11 12:38:32;;;;;;;3.20;1.20;;;25.10;96.70;;;;;;5373685;26;20010;-70
2024/04/11 12:41:01;;;;;;;5.57;1.00;;;25.30;96.70;;;;;;5384713;26;21328;-69
2024/04/11 12:43:35;;;;;;;2.17;1.08;;;25.40;96.70;;;;;;5370001;26;20000;-70
2024/04/11 12:46:08;;;;;;;2.47;1.02;;;25.30;96.70;;;;;;5399205;26;20010;-70
2024/04/11 12:48:40;;;;;;;1.27;0.85;;;25.40;96.70;;;;;;5369223;26;20055;-70
2024/04/11 12:51:12;;;;;;;4.10;1.08;;;25.30;96.70;;;;;;5376209;26;20014;-70
2024/04/11 12:53:41;;;;;;;2.78;0.85;;;25.60;96.70;;;;;;5404592;26;20004;-72
2024/04/11 12:56:11;;;;;;;2.33;1.00;;;25.60;96.70;;;;;;5407203;26;20018;-71
2024/04/11 12:58:59;;;;;;;2.53;0.95;;;25.70;96.70;;;;;;5384406;26;20009;-71
2024/04/11 13:01:32;;;;;;;1.60;1.02;;;26.00;96.70;;;;;;5410620;26;20032;-72
2024/04/11 13:04:08;;;;;;;2.80;1.05;;;26.00;96.70;;;;;;5414102;26;20014;-71
2024/04/11 13:06:48;;;;;;;2.35;1.20;;;26.10;96.70;;;;;;5367792;26;20000;-72
2024/04/11 13:09:31;;;;;;;3.15;1.02;;;26.20;96.70;;;;;;5378142;26;20123;-72
2024/04/11 13:12:04;;;;;;;3.13;0.95;;;26.20;96.70;;;;;;5375344;26;20009;-72
2024/04/11 13:14:55;;;;;;;2.20;0.88;;;26.20;96.70;;;;;;5396499;26;20468;-71
2024/04/11 13:17:27;;;;;;;3.03;1.05;;;26.30;96.70;;;;;;5395248;26;20006;-72
2024/04/11 13:20:12;;;;;;;3.35;1.10;;;26.60;96.70;;;;;;5405951;26;19999;-72
2024/04/11 13:22:48;;;;;;;2.03;1.15;;;26.50;96.70;;;;;;5375501;26;20448;-72